Time;durP1;ratioP1;P1;durP2;ratioP2;P2;SDS_P1;SDS_P2;PMS_P1;PMS_P2;Temp;Humidity;BMP_temperature;BMP_pressure;BME280_temperature;BME280_humidity;BME280_pressure;Samples;Min_cycle;Max_cycle;Signal;HPM_P1;HPM_P2
2022/09/09 00:01:36;;;;;;;1.50;0.90;;;;;;;13.58;100.00;100349.44;6045065;28;20022;-65
2022/09/09 00:04:34;;;;;;;2.13;1.30;;;;;;;13.65;100.00;100335.25;6035132;28;20269;-66
2022/09/09 00:07:51;;;;;;;3.20;1.20;;;;;;;13.74;100.00;100344.03;6044343;28;20045;-66
2022/09/09 00:10:54;;;;;;;2.40;1.20;;;;;;;13.78;100.00;100339.19;6041542;28;20084;-67
2022/09/09 00:13:53;;;;;;;4.05;1.30;;;;;;;13.94;100.00;100341.75;6041669;28;20058;-67
2022/09/09 00:17:01;;;;;;;2.80;1.00;;;;;;;13.94;100.00;100344.41;6044475;28;20064;-67
2022/09/09 00:20:05;;;;;;;4.88;1.25;;;;;;;13.90;100.00;100337.75;6044309;28;20053;-67
2022/09/09 00:23:10;;;;;;;1.58;0.82;;;;;;;13.79;100.00;100349.66;6045880;28;20644;-65
2022/09/09 00:26:32;;;;;;;2.17;1.05;;;;;;;13.73;100.00;100342.34;6045508;28;20030;-64
2022/09/09 00:29:37;;;;;;;6.88;1.55;;;;;;;13.57;100.00;100331.78;6039591;28;20054;-67
2022/09/09 00:32:35;;;;;;;3.05;1.23;;;;;;;13.67;100.00;100343.03;6059940;28;20473;-65
2022/09/09 00:35:39;;;;;;;3.03;1.05;;;;;;;13.63;100.00;100334.59;6045660;28;20072;-65
2022/09/09 00:38:37;;;;;;;2.47;1.13;;;;;;;13.45;100.00;100310.03;6053273;28;20030;-64
2022/09/09 00:41:55;;;;;;;3.22;1.15;;;;;;;13.46;100.00;100334.84;6041876;28;20068;-64
2022/09/09 00:44:59;;;;;;;4.20;1.13;;;;;;;13.50;100.00;100338.84;6043282;28;20025;-65
2022/09/09 00:47:56;;;;;;;4.25;1.20;;;;;;;13.43;100.00;100313.88;6045202;28;20030;-67
2022/09/09 00:50:56;;;;;;;2.58;1.13;;;;;;;13.52;100.00;100334.16;6036638;28;20113;-68
2022/09/09 00:54:11;;;;;;;3.28;0.90;;;;;;;13.48;100.00;100344.31;6049854;28;20405;-66
2022/09/09 00:57:31;;;;;;;1.58;0.98;;;;;;;13.50;100.00;100337.00;6049177;28;20038;-64
2022/09/09 01:00:30;;;;;;;4.30;1.20;;;;;;;13.47;100.00;100333.84;6049129;28;20040;-67
2022/09/09 01:03:37;;;;;;;2.80;1.15;;;;;;;13.47;100.00;100340.00;6048096;28;20034;-65
2022/09/09 01:06:36;;;;;;;2.08;0.90;;;;;;;13.44;100.00;100323.53;6049376;28;20091;-68
2022/09/09 01:09:42;;;;;;;2.33;1.05;;;;;;;13.49;100.00;100339.81;6047836;28;20377;-67
2022/09/09 01:12:43;;;;;;;3.10;1.10;;;;;;;13.50;100.00;100344.16;6048575;28;20037;-66
2022/09/09 01:15:40;;;;;;;2.92;1.20;;;;;;;13.47;100.00;100336.50;6048816;28;20041;-67
2022/09/09 01:18:39;;;;;;;2.83;1.25;;;;;;;13.37;100.00;100334.03;6063956;28;20037;-65
2022/09/09 01:21:55;;;;;;;4.93;1.05;;;;;;;13.38;100.00;100342.88;6036956;28;20053;-67
2022/09/09 01:25:06;;;;;;;4.88;1.20;;;;;;;13.44;100.00;100355.50;6042107;28;20030;-64
2022/09/09 01:28:05;;;;;;;3.50;1.10;;;;;;;13.35;100.00;100352.03;6046493;28;20034;-64
2022/09/09 01:31:01;;;;;;;3.13;1.20;;;;;;;13.39;100.00;100333.88;6046957;28;20037;-66
2022/09/09 01:33:56;;;;;;;2.38;0.90;;;;;;;13.30;100.00;100319.78;6047886;28;20033;-65
2022/09/09 01:37:04;;;;;;;2.67;1.10;;;;;;;13.34;100.00;100337.06;6048310;28;20064;-67
2022/09/09 01:39:59;;;;;;;3.95;1.50;;;;;;;13.24;100.00;100317.78;6048480;28;20037;-64
2022/09/09 01:42:55;;;;;;;1.90;1.10;;;;;;;13.25;100.00;100329.28;6047692;28;20126;-66
2022/09/09 01:45:53;;;;;;;3.10;0.95;;;;;;;13.31;100.00;100341.91;6062624;28;20260;-66
2022/09/09 01:48:53;;;;;;;4.30;1.10;;;;;;;13.32;100.00;100338.22;6030004;28;20030;-65
2022/09/09 01:51:54;;;;;;;2.63;1.20;;;;;;;13.16;100.00;100309.84;6055499;28;20397;-66
2022/09/09 01:54:49;;;;;;;2.97;1.20;;;;;;;13.25;100.00;100332.78;6044843;28;20030;-65
2022/09/09 01:57:49;;;;;;;4.53;1.27;;;;;;;13.23;100.00;100332.13;6045017;28;20033;-65
2022/09/09 02:00:56;;;;;;;1.85;1.08;;;;;;;13.22;100.00;100329.63;6062441;28;20060;-66
2022/09/09 02:03:53;;;;;;;2.50;1.13;;;;;;;13.16;100.00;100319.66;6046584;28;20058;-65
2022/09/09 02:06:50;;;;;;;4.00;1.30;;;;;;;13.21;100.00;100325.31;6046091;28;20109;-65
2022/09/09 02:09:51;;;;;;;2.75;1.25;;;;;;;13.15;100.00;100318.00;6035768;28;20030;-66
2022/09/09 02:12:58;;;;;;;4.82;1.48;;;;;;;13.22;100.00;100321.63;6046232;28;20457;-65
2022/09/09 02:16:00;;;;;;;3.95;1.08;;;;;;;13.27;100.00;100329.94;6046413;28;20493;-65
2022/09/09 02:19:01;;;;;;;3.97;1.38;;;;;;;13.37;100.00;100335.91;6047841;28;20026;-65
2022/09/09 02:21:59;;;;;;;4.47;1.25;;;;;;;13.39;100.00;100336.56;6046971;28;20136;-67
2022/09/09 02:24:58;;;;;;;2.33;1.20;;;;;;;13.33;100.00;100319.44;6046109;28;20537;-66
2022/09/09 02:27:53;;;;;;;5.30;1.40;;;;;;;13.39;100.00;100336.56;6062372;28;20030;-66
2022/09/09 02:30:53;;;;;;;3.58;1.08;;;;;;;13.31;100.00;100323.28;6046591;28;20388;-65
2022/09/09 02:33:57;;;;;;;7.38;1.42;;;;;;;13.33;100.00;100330.06;6046140;28;20048;-67
2022/09/09 02:36:53;;;;;;;1.58;0.90;;;;;;;13.35;100.00;100321.91;6045799;28;20033;-64
2022/09/09 02:39:49;;;;;;;2.60;1.10;;;;;;;13.34;100.00;100320.25;6046301;28;20057;-66
2022/09/09 02:42:49;;;;;;;2.35;0.98;;;;;;;13.36;100.00;100334.22;6046674;28;20021;-65
2022/09/09 02:46:20;;;;;;;6.05;1.13;;;;;;;13.39;100.00;100336.56;6041526;28;20034;-65
2022/09/09 02:49:49;;;;;;;3.53;1.10;;;;;;;13.27;100.00;100311.28;6044516;28;20437;-65
2022/09/09 02:53:09;;;;;;;3.15;1.63;;;;;;;13.38;100.00;100326.88;6045154;28;20113;-65
2022/09/09 02:56:09;;;;;;;2.47;1.10;;;;;;;13.36;100.00;100334.22;6061614;28;20533;-67
2022/09/09 02:59:04;;;;;;;5.10;1.20;;;;;;;13.31;100.00;100325.94;6062017;28;20034;-66
2022/09/09 03:02:00;;;;;;;3.78;1.13;;;;;;;13.28;100.00;100323.63;6046106;28;20086;-67
2022/09/09 03:04:56;;;;;;;3.90;1.20;;;;;;;13.24;100.00;100309.81;6046190;28;20113;-66
2022/09/09 03:07:51;;;;;;;2.63;1.10;;;;;;;13.31;100.00;100321.44;6046589;28;20527;-65
2022/09/09 03:10:47;;;;;;;2.40;1.03;;;;;;;13.24;100.00;100314.28;6042475;28;20483;-66
2022/09/09 03:13:42;;;;;;;4.03;1.50;;;;;;;13.18;100.00;100312.34;6036321;28;20026;-66
2022/09/09 03:16:37;;;;;;;4.60;1.10;;;;;;;13.23;100.00;100321.47;6046177;28;20034;-66
2022/09/09 03:19:35;;;;;;;4.33;1.30;;;;;;;13.24;100.00;100340.91;6046395;28;20061;-67
2022/09/09 03:22:30;;;;;;;6.63;2.08;;;;;;;13.06;100.00;100333.97;6045757;28;20800;-65
2022/09/09 03:25:26;;;;;;;3.13;1.00;;;;;;;13.08;100.00;100342.66;6050431;28;20033;-65
2022/09/09 03:28:21;;;;;;;2.15;1.10;;;;;;;13.07;100.00;100343.63;6046425;28;20109;-64
2022/09/09 03:31:19;;;;;;;4.40;1.35;;;;;;;13.06;100.00;100322.50;6045410;28;20041;-65
2022/09/09 03:34:14;;;;;;;2.17;1.10;;;;;;;13.13;100.00;100345.63;6046097;28;20038;-64
2022/09/09 03:37:10;;;;;;;4.78;1.35;;;;;;;13.15;100.00;100341.97;6045852;28;20046;-66
2022/09/09 03:40:06;;;;;;;3.47;1.10;;;;;;;13.15;100.00;100347.28;6044401;28;20137;-66
2022/09/09 03:43:02;;;;;;;5.82;1.40;;;;;;;13.10;100.00;100348.63;6045894;28;20358;-65
2022/09/09 03:45:57;;;;;;;6.40;1.20;;;;;;;13.02;100.00;100337.13;6045645;28;20037;-66
2022/09/09 03:48:52;;;;;;;1.37;0.87;;;;;;;12.96;100.00;100337.84;6045767;28;20045;-67
2022/09/09 03:51:48;;;;;;;5.93;1.40;;;;;;;13.13;100.00;100343.97;6041783;28;20117;-66
2022/09/09 03:54:43;;;;;;;5.00;1.33;;;;;;;13.08;100.00;100323.19;6044875;28;20364;-65
2022/09/09 03:57:38;;;;;;;4.37;1.50;;;;;;;13.17;100.00;100326.66;6045064;28;20370;-66
2022/09/09 04:00:33;;;;;;;4.30;1.27;;;;;;;13.19;100.00;100327.28;6038815;28;20030;-65
2022/09/09 04:03:29;;;;;;;4.73;1.30;;;;;;;13.35;100.00;100335.22;6045075;28;20112;-65
2022/09/09 04:06:26;;;;;;;2.33;1.20;;;;;;;13.34;100.00;100320.25;6035152;28;20070;-66
2022/09/09 04:09:21;;;;;;;2.78;1.20;;;;;;;13.43;100.00;100330.69;6045749;28;20030;-65
2022/09/09 04:12:17;;;;;;;3.73;1.40;;;;;;;13.39;100.00;100324.06;6045106;28;20033;-64
2022/09/09 04:15:13;;;;;;;3.67;1.60;;;;;;;13.47;100.00;100332.03;6045603;28;20112;-66
2022/09/09 04:18:08;;;;;;;3.73;1.30;;;;;;;13.53;100.00;100327.81;6045141;28;20491;-66
2022/09/09 04:21:05;;;;;;;4.37;1.50;;;;;;;13.57;100.00;100324.63;6039565;28;20392;-66
2022/09/09 04:24:00;;;;;;;4.78;1.27;;;;;;;13.64;100.00;100332.75;6050266;28;20265;-66
2022/09/09 04:26:55;;;;;;;2.17;1.10;;;;;;;13.64;100.00;100330.91;6050031;28;20068;-66
2022/09/09 04:29:50;;;;;;;3.80;1.03;;;;;;;13.67;100.00;100332.38;6049684;28;20300;-65
2022/09/09 04:32:46;;;;;;;2.73;1.30;;;;;;;13.72;100.00;100340.72;6048504;28;20044;-65
2022/09/09 04:35:49;;;;;;;3.03;1.33;;;;;;;13.75;100.00;100328.88;6049570;28;20465;-64
2022/09/09 04:38:45;;;;;;;4.97;1.40;;;;;;;13.89;100.00;100339.59;6049542;28;20029;-66
2022/09/09 04:41:40;;;;;;;6.15;2.13;;;;;;;13.93;100.00;100332.06;6041077;28;20405;-65
2022/09/09 04:44:36;;;;;;;5.00;1.70;;;;;;;13.92;100.00;100325.91;6049544;28;20034;-66
2022/09/09 04:47:31;;;;;;;4.13;1.23;;;;;;;14.01;100.00;100345.34;6040487;28;20038;-64
2022/09/09 04:50:28;;;;;;;4.78;1.50;;;;;;;14.01;100.00;100330.19;6048800;28;20046;-65
2022/09/09 04:53:25;;;;;;;4.72;1.52;;;;;;;14.06;100.00;100348.31;6049694;28;20381;-65
2022/09/09 04:56:20;;;;;;;3.90;1.52;;;;;;;14.02;100.00;100342.50;6049089;28;20034;-65
2022/09/09 04:59:15;;;;;;;9.68;1.67;;;;;;;14.06;100.00;100342.97;6049034;28;20025;-66
2022/09/09 05:02:11;;;;;;;12.00;2.25;;;;;;;14.12;100.00;100353.78;6036715;28;20096;-65
2022/09/09 05:05:06;;;;;;;6.53;1.98;;;;;;;14.12;100.00;100345.78;6044762;28;20037;-65
2022/09/09 05:08:04;;;;;;;5.57;2.47;;;;;;;14.15;100.00;100352.59;6049281;28;20025;-66
2022/09/09 05:10:59;;;;;;;2.40;1.33;;;;;;;14.19;100.00;100360.06;6048372;28;20300;-65
2022/09/09 05:13:56;;;;;;;4.73;1.67;;;;;;;14.16;100.00;100360.41;6048883;28;20061;-65
2022/09/09 05:16:51;;;;;;;3.42;1.42;;;;;;;14.23;100.00;100358.69;6063291;28;20107;-65
2022/09/09 05:19:46;;;;;;;5.43;1.60;;;;;;;14.26;100.00;100355.69;6048630;28;20041;-64
2022/09/09 05:22:42;;;;;;;4.55;1.38;;;;;;;14.22;100.00;100351.69;6048419;28;20099;-65
2022/09/09 05:25:37;;;;;;;6.77;1.77;;;;;;;14.32;100.00;100361.34;6048888;28;20033;-64
2022/09/09 05:28:36;;;;;;;5.03;1.50;;;;;;;14.35;100.00;100352.97;6046432;28;20428;-66
2022/09/09 05:31:32;;;;;;;4.18;1.85;;;;;;;14.42;100.00;100348.56;6047962;28;20034;-64
2022/09/09 05:34:27;;;;;;;4.43;1.48;;;;;;;14.44;100.00;100351.88;6047998;28;20041;-66
2022/09/09 05:37:23;;;;;;;4.13;1.50;;;;;;;14.52;100.00;100354.47;6048577;28;20341;-65
2022/09/09 05:40:18;;;;;;;4.00;1.13;;;;;;;14.59;100.00;100355.44;6047527;28;20034;-64
2022/09/09 05:43:14;;;;;;;4.63;1.40;;;;;;;14.59;100.00;100350.94;6047685;28;20030;-63
2022/09/09 05:46:11;;;;;;;9.23;2.13;;;;;;;14.72;100.00;100358.31;6042891;28;20035;-65
2022/09/09 05:49:06;;;;;;;5.60;1.38;;;;;;;14.79;99.88;100368.06;6042052;28;20059;-65
2022/09/09 05:52:03;;;;;;;3.00;1.30;;;;;;;14.84;99.87;100359.50;6036023;28;20073;-65
2022/09/09 05:54:59;;;;;;;4.88;1.20;;;;;;;14.87;99.43;100364.50;6062325;28;20037;-64
2022/09/09 05:57:54;;;;;;;6.93;3.35;;;;;;;14.96;99.47;100382.09;6048288;28;20034;-64
2022/09/09 06:00:50;;;;;;;4.60;1.40;;;;;;;14.97;98.48;100365.06;6047446;28;20033;-65
2022/09/09 06:03:47;;;;;;;5.32;1.10;;;;;;;15.03;98.26;100375.00;6047774;28;20026;-65
2022/09/09 06:06:42;;;;;;;3.30;1.60;;;;;;;14.99;98.78;100368.38;6047032;28;20042;-64
2022/09/09 06:09:38;;;;;;;2.78;1.38;;;;;;;14.90;99.00;100370.31;6047753;28;20045;-67
2022/09/09 06:12:33;;;;;;;6.20;1.30;;;;;;;14.87;98.70;100369.81;6047396;28;20048;-67
2022/09/09 06:15:30;;;;;;;7.03;1.53;;;;;;;14.98;98.59;100381.91;6047803;28;20354;-65
2022/09/09 06:18:26;;;;;;;3.50;1.25;;;;;;;15.02;98.51;100389.38;6047538;28;20064;-66
2022/09/09 06:21:25;;;;;;;5.47;1.60;;;;;;;15.09;98.74;100392.97;6046404;28;20046;-64
2022/09/09 06:24:20;;;;;;;5.57;1.20;;;;;;;15.22;97.91;100397.69;6047266;28;20045;-66
2022/09/09 06:27:16;;;;;;;6.20;1.45;;;;;;;15.22;96.99;100379.81;6042938;28;20030;-63
2022/09/09 06:30:13;;;;;;;2.53;1.35;;;;;;;15.49;96.95;100400.56;6039631;28;20065;-65
2022/09/09 06:33:09;;;;;;;3.83;1.10;;;;;;;15.60;96.60;100387.75;6046788;28;20029;-63
2022/09/09 06:36:05;;;;;;;5.68;1.23;;;;;;;15.72;95.05;100387.09;6047030;28;20042;-63
2022/09/09 06:39:01;;;;;;;5.47;1.30;;;;;;;15.89;94.22;100399.22;6033549;28;20517;-64
2022/09/09 06:41:58;;;;;;;4.03;1.15;;;;;;;16.02;93.82;100395.88;6031970;28;20095;-64
2022/09/09 06:44:53;;;;;;;6.68;1.75;;;;;;;15.90;92.80;100389.34;6039178;28;20425;-65
2022/09/09 06:47:49;;;;;;;3.80;1.27;;;;;;;15.78;93.43;100369.47;6042764;28;20034;-64
2022/09/09 06:50:44;;;;;;;3.67;1.15;;;;;;;15.93;93.88;100372.91;6046358;28;20778;-66
2022/09/09 06:53:41;;;;;;;4.00;1.83;;;;;;;16.51;92.26;100377.22;6046592;28;20044;-64
2022/09/09 06:56:42;;;;;;;3.80;1.30;;;;;;;16.83;89.72;100370.50;6046200;28;20129;-63
2022/09/09 06:59:38;;;;;;;6.43;1.25;;;;;;;17.28;86.84;100376.16;6046451;28;20064;-65
2022/09/09 07:02:38;;;;;;;3.37;1.10;;;;;;;17.26;85.06;100369.34;6046068;28;20038;-64
2022/09/09 07:05:34;;;;;;;4.00;1.00;;;;;;;17.40;85.76;100363.03;6046527;28;20401;-64
2022/09/09 07:08:29;;;;;;;5.88;1.30;;;;;;;17.90;84.42;100369.03;6046010;28;20489;-64
2022/09/09 07:11:27;;;;;;;3.20;1.02;;;;;;;18.10;81.49;100353.84;6040344;28;20088;-63
2022/09/09 07:14:22;;;;;;;4.68;1.30;;;;;;;18.03;82.10;100352.97;6037161;28;20038;-63
2022/09/09 07:17:18;;;;;;;2.30;0.97;;;;;;;17.91;81.59;100357.31;6040518;28;20045;-62
2022/09/09 07:20:14;;;;;;;3.87;1.20;;;;;;;17.92;82.35;100365.13;6028585;28;20261;-64
2022/09/09 07:23:09;;;;;;;4.03;1.17;;;;;;;18.22;80.31;100381.72;6044662;28;20038;-62
2022/09/09 07:26:13;;;;;;;4.20;1.07;;;;;;;18.54;80.80;100361.34;6045377;28;20034;-63
2022/09/09 07:29:08;;;;;;;4.40;1.30;;;;;;;18.31;80.02;100370.59;6046142;28;20389;-66
2022/09/09 07:32:04;;;;;;;5.38;1.38;;;;;;;18.22;80.56;100373.66;6045358;28;20032;-63
2022/09/09 07:34:59;;;;;;;4.03;1.10;;;;;;;18.15;80.31;100371.00;6045663;28;20385;-64
2022/09/09 07:37:56;;;;;;;2.67;1.13;;;;;;;17.85;81.17;100381.19;6042292;28;20032;-65
2022/09/09 07:40:52;;;;;;;3.58;1.13;;;;;;;17.68;83.31;100387.97;6041955;28;20124;-62
2022/09/09 07:43:49;;;;;;;5.17;1.20;;;;;;;17.74;82.49;100386.34;6044127;28;20029;-64
2022/09/09 07:46:45;;;;;;;4.63;1.10;;;;;;;17.76;81.49;100384.28;6059087;28;20030;-64
2022/09/09 07:49:40;;;;;;;4.13;1.20;;;;;;;18.25;80.53;100389.38;6044719;28;20038;-65
2022/09/09 07:52:38;;;;;;;2.28;1.27;;;;;;;17.99;80.72;100400.84;6047401;28;20025;-63
2022/09/09 07:55:34;;;;;;;4.53;1.25;;;;;;;17.79;82.21;100390.06;6050474;28;20033;-62
2022/09/09 07:58:29;;;;;;;3.03;1.00;;;;;;;17.82;81.37;100400.41;6050448;28;20057;-63
2022/09/09 08:01:34;;;;;;;2.33;1.03;;;;;;;17.79;81.99;100390.06;6050163;28;20057;-63
2022/09/09 08:04:29;;;;;;;2.35;0.93;;;;;;;17.88;81.72;100396.09;6050343;28;20093;-63
2022/09/09 08:07:24;;;;;;;3.33;1.30;;;;;;;17.89;81.38;100399.56;6049464;28;20144;-63
2022/09/09 08:10:20;;;;;;;4.13;1.30;;;;;;;17.77;80.98;100392.09;6049572;28;20091;-64
2022/09/09 08:13:17;;;;;;;5.57;1.10;;;;;;;17.71;81.66;100403.66;6050383;28;20400;-64
2022/09/09 08:16:14;;;;;;;1.98;0.85;;;;;;;17.66;82.31;100394.56;6050701;28;20092;-63
2022/09/09 08:19:10;;;;;;;4.00;1.13;;;;;;;17.79;81.09;100405.34;6050232;28;20109;-64
2022/09/09 08:22:05;;;;;;;6.20;1.27;;;;;;;17.85;80.79;100410.72;6048956;28;20053;-63
2022/09/09 08:25:02;;;;;;;5.03;1.10;;;;;;;17.91;80.58;100416.31;6049926;28;20261;-64
2022/09/09 08:27:57;;;;;;;4.20;1.17;;;;;;;17.91;80.91;100413.63;6050042;28;20041;-65
2022/09/09 08:30:53;;;;;;;3.10;1.10;;;;;;;17.77;82.05;100424.28;6049398;28;20030;-64
2022/09/09 08:33:48;;;;;;;4.60;1.10;;;;;;;18.14;80.55;100423.00;6049760;28;20116;-63
2022/09/09 08:36:45;;;;;;;3.83;1.05;;;;;;;18.36;79.16;100423.69;6050203;28;20137;-63
2022/09/09 08:39:40;;;;;;;4.07;1.00;;;;;;;18.90;77.12;100426.22;6039603;28;20046;-64
2022/09/09 08:42:41;;;;;;;2.67;0.90;;;;;;;19.38;75.43;100418.75;6049693;28;20057;-63
2022/09/09 08:45:50;;;;;;;2.33;0.98;;;;;;;19.82;73.96;100418.84;6048785;28;20237;-63
2022/09/09 08:49:03;;;;;;;5.82;1.20;;;;;;;20.21;71.52;100420.53;6065231;28;20022;-65
2022/09/09 08:51:59;;;;;;;4.07;1.05;;;;;;;19.98;71.19;100404.88;6048391;28;20547;-65
2022/09/09 08:55:10;;;;;;;4.93;1.00;;;;;;;20.18;71.52;100407.47;6030535;28;20030;-64
2022/09/09 08:58:24;;;;;;;5.45;1.00;;;;;;;20.16;70.41;100423.84;6028316;28;20026;-64
2022/09/09 09:01:41;;;;;;;3.90;1.00;;;;;;;20.72;69.79;100428.50;6036612;28;20488;-63
2022/09/09 09:04:45;;;;;;;2.53;1.17;;;;;;;20.71;68.19;100421.44;6048670;28;20587;-64
2022/09/09 09:08:08;;;;;;;4.25;1.08;;;;;;;21.09;68.03;100419.50;6064885;28;20142;-65
2022/09/09 09:11:05;;;;;;;3.22;0.93;;;;;;;20.92;66.65;100423.78;6043864;28;20116;-62
2022/09/09 09:14:23;;;;;;;3.33;1.02;;;;;;;20.68;66.92;100413.81;6047546;28;20042;-63
2022/09/09 09:17:19;;;;;;;3.90;1.20;;;;;;;20.96;66.94;100435.78;6048978;28;20026;-64
2022/09/09 09:20:16;;;;;;;4.93;1.30;;;;;;;21.10;66.19;100426.56;6062075;28;20046;-65
2022/09/09 09:23:50;;;;;;;3.60;0.90;;;;;;;21.53;66.28;100420.31;6044765;28;20042;-64
2022/09/09 09:26:46;;;;;;;4.63;1.02;;;;;;;22.08;64.13;100423.81;6029372;28;20088;-64
2022/09/09 09:29:43;;;;;;;2.28;0.88;;;;;;;22.03;63.74;100421.00;6055929;28;20046;-64
2022/09/09 09:32:40;;;;;;;4.38;1.13;;;;;;;22.04;62.83;100425.34;6047259;28;20041;-63
2022/09/09 09:35:36;;;;;;;6.10;1.08;;;;;;;21.74;62.66;100417.19;6047555;28;20038;-65
2022/09/09 09:38:31;;;;;;;4.90;0.93;;;;;;;21.24;64.01;100416.47;6049736;28;20033;-63
2022/09/09 09:41:36;;;;;;;4.95;1.08;;;;;;;21.08;64.65;100422.44;6047726;28;20072;-64
2022/09/09 09:44:32;;;;;;;3.85;1.15;;;;;;;20.59;65.12;100424.03;6040579;28;20037;-64
2022/09/09 09:47:27;;;;;;;4.70;1.40;;;;;;;20.50;67.27;100424.50;6041661;28;20029;-64
2022/09/09 09:50:22;;;;;;;3.10;1.20;;;;;;;20.92;66.57;100429.19;6053300;28;20025;-65
2022/09/09 09:53:23;;;;;;;3.53;1.00;;;;;;;20.87;65.85;100431.72;6049609;28;20033;-64
2022/09/09 09:56:27;;;;;;;3.30;0.90;;;;;;;20.90;66.08;100419.66;6056458;28;20465;-65
2022/09/09 09:59:34;;;;;;;3.03;1.05;;;;;;;21.05;64.10;100409.34;6049535;28;20044;-65
2022/09/09 10:02:40;;;;;;;4.15;1.00;;;;;;;21.21;63.27;100412.34;6046981;28;20029;-65
2022/09/09 10:05:35;;;;;;;2.85;0.90;;;;;;;22.28;62.25;100398.22;6042066;28;20070;-65
2022/09/09 10:08:34;;;;;;;2.90;0.82;;;;;;;23.01;58.72;100400.59;6040943;28;20029;-65
2022/09/09 10:11:44;;;;;;;4.95;1.30;;;;;;;22.17;59.47;100396.28;6048274;28;20104;-65
2022/09/09 10:14:51;;;;;;;7.47;1.10;;;;;;;22.16;60.93;100374.88;6073053;28;20046;-64
2022/09/09 10:18:05;;;;;;;5.03;1.00;;;;;;;23.20;57.53;100388.59;6062053;28;20084;-66
2022/09/09 10:21:11;;;;;;;1.45;0.75;;;;;;;23.81;55.31;100377.19;6051859;28;20397;-66
2022/09/09 10:24:11;;;;;;;1.50;0.70;;;;;;;23.13;55.78;100384.38;6047634;28;20648;-65
2022/09/09 10:27:25;;;;;;;6.38;1.90;;;;;;;23.02;55.92;100388.69;6047593;28;20113;-66
2022/09/09 10:30:23;;;;;;;1.67;1.00;;;;;;;21.57;59.50;100383.72;6061927;28;20088;-64
2022/09/09 10:33:44;;;;;;;5.05;1.20;;;;;;;21.06;60.77;100373.25;6046365;28;20041;-65
2022/09/09 10:36:44;;;;;;;4.00;0.95;;;;;;;21.65;60.09;100386.13;6043554;28;20397;-65
2022/09/09 10:39:40;;;;;;;2.70;0.88;;;;;;;22.13;59.03;100378.88;6046430;28;20032;-65
2022/09/09 10:42:36;;;;;;;4.30;0.85;;;;;;;22.41;60.35;100370.97;6046628;28;20030;-65
2022/09/09 10:45:48;;;;;;;2.63;0.90;;;;;;;21.83;62.99;100369.91;6053971;28;20041;-65
2022/09/09 10:49:15;;;;;;;6.90;0.90;;;;;;;22.07;66.40;100374.38;6026855;28;20042;-65
2022/09/09 10:52:22;;;;;;;5.82;1.35;;;;;;;21.83;62.40;100370.72;6044604;28;20046;-66
2022/09/09 10:55:27;;;;;;;5.38;1.65;;;;;;;21.74;64.33;100373.97;6048977;28;20034;-65
2022/09/09 10:58:34;;;;;;;3.58;1.08;;;;;;;22.81;57.36;100356.84;6045862;28;20539;-64
2022/09/09 11:01:44;;;;;;;5.75;1.05;;;;;;;22.93;54.63;100363.09;6033999;28;20096;-67
2022/09/09 11:04:43;;;;;;;4.18;1.13;;;;;;;23.02;55.68;100364.34;6043598;28;20061;-64
2022/09/09 11:07:45;;;;;;;5.22;1.00;;;;;;;22.52;56.51;100367.47;6041608;28;20034;-65
2022/09/09 11:10:56;;;;;;;3.10;0.60;;;;;;;23.11;54.28;100365.66;6056818;28;20496;-64
2022/09/09 11:13:51;;;;;;;5.97;1.08;;;;;;;23.38;54.68;100368.72;6057301;28;20057;-65
2022/09/09 11:17:04;;;;;;;3.63;0.90;;;;;;;22.90;54.82;100358.13;6042593;28;20041;-65
2022/09/09 11:20:00;;;;;;;3.90;1.10;;;;;;;23.20;55.19;100356.13;6046238;28;20038;-65
2022/09/09 11:23:01;;;;;;;3.20;1.05;;;;;;;24.31;52.06;100371.97;6045211;28;20029;-65
2022/09/09 11:25:59;;;;;;;6.72;1.17;;;;;;;24.39;52.37;100381.56;6038067;28;20037;-65
2022/09/09 11:28:57;;;;;;;7.85;1.23;;;;;;;22.60;55.22;100389.81;6041412;28;20522;-65
2022/09/09 11:32:17;;;;;;;4.43;0.90;;;;;;;22.77;54.19;100385.41;6039900;28;20040;-65
2022/09/09 11:35:35;;;;;;;4.55;1.10;;;;;;;22.28;54.34;100392.81;6049080;28;20081;-65
2022/09/09 11:38:59;;;;;;;2.88;0.98;;;;;;;22.07;57.13;100390.59;6031946;28;20499;-65
2022/09/09 11:42:06;;;;;;;3.35;0.80;;;;;;;21.78;56.77;100372.47;6036141;28;20480;-66
2022/09/09 11:45:28;;;;;;;2.88;0.95;;;;;;;21.87;57.03;100376.53;6037207;28;20137;-65
2022/09/09 11:48:35;;;;;;;2.95;0.82;;;;;;;21.53;57.40;100371.72;6060714;28;20157;-65
2022/09/09 11:51:33;;;;;;;3.15;1.08;;;;;;;21.45;58.61;100378.25;6039556;28;20038;-65
2022/09/09 11:54:31;;;;;;;4.82;1.13;;;;;;;21.18;60.69;100383.13;6055869;28;20700;-64
2022/09/09 11:57:33;;;;;;;3.35;0.68;;;;;;;20.61;62.23;100389.63;6044116;28;20038;-64
2022/09/09 12:00:44;;;;;;;2.00;0.55;;;;;;;19.92;63.66;100411.13;6037309;28;20404;-65
2022/09/09 12:03:43;;;;;;;4.88;0.65;;;;;;;19.37;67.25;100417.09;6038207;28;20038;-64
2022/09/09 12:06:46;;;;;;;7.25;0.90;;;;;;;18.96;68.88;100403.91;6036748;28;20454;-65
2022/09/09 12:09:44;;;;;;;3.83;0.93;;;;;;;18.70;69.47;100426.22;6042552;28;20041;-65
2022/09/09 12:12:40;;;;;;;13.77;1.63;;;;;;;18.26;78.25;100444.72;6043356;28;20125;-68
2022/09/09 12:15:47;;;;;;;14.00;1.90;;;;;;;15.70;83.41;100417.69;6044757;28;20045;-68
2022/09/09 12:18:44;;;;;;;3.08;1.10;;;;;;;14.78;88.02;100413.66;6044455;28;20034;-68
2022/09/09 12:21:41;;;;;;;6.95;1.40;;;;;;;14.74;97.18;100417.69;6044149;28;20037;-67
2022/09/09 12:25:16;;;;;;;2.45;1.20;;;;;;;14.90;100.00;100385.50;6059328;28;20061;-67
2022/09/09 12:28:20;;;;;;;6.43;1.10;;;;;;;15.16;100.00;100401.94;6039726;28;20381;-66
2022/09/09 12:31:39;;;;;;;5.88;1.17;;;;;;;15.32;100.00;100412.44;6043101;28;20512;-66
2022/09/09 12:34:55;;;;;;;4.82;0.95;;;;;;;15.16;100.00;100433.16;6044067;28;20484;-67
2022/09/09 12:37:58;;;;;;;2.80;0.80;;;;;;;15.14;100.00;100445.84;6045203;28;20041;-66
2022/09/09 12:40:56;;;;;;;2.85;1.63;;;;;;;15.12;100.00;100448.69;6042651;28;20108;-65
2022/09/09 12:43:51;;;;;;;2.92;1.08;;;;;;;15.27;100.00;100441.53;6049276;28;20545;-66
2022/09/09 12:46:48;;;;;;;2.92;1.05;;;;;;;15.92;100.00;100448.84;6048490;28;20084;-66
2022/09/09 12:49:44;;;;;;;5.22;1.10;;;;;;;15.68;100.00;100451.81;6049678;28;20041;-68
2022/09/09 12:52:39;;;;;;;7.20;1.42;;;;;;;15.70;100.00;100426.56;6046457;28;20044;-68
2022/09/09 12:55:38;;;;;;;4.47;1.03;;;;;;;15.71;100.00;100430.88;6048444;28;20033;-68
2022/09/09 12:58:34;;;;;;;7.22;1.23;;;;;;;15.67;100.00;100404.69;6046530;28;20041;-67
2022/09/09 13:01:32;;;;;;;6.65;1.50;;;;;;;16.07;100.00;100409.50;6036853;28;20535;-67
2022/09/09 13:04:28;;;;;;;6.88;1.35;;;;;;;16.29;100.00;100403.16;6049361;28;20358;-67
2022/09/09 13:07:25;;;;;;;4.10;1.30;;;;;;;16.28;100.00;100393.47;6047173;28;20037;-66
2022/09/09 13:10:26;;;;;;;4.28;1.40;;;;;;;16.23;100.00;100389.69;6046461;28;20288;-66
2022/09/09 13:13:24;;;;;;;3.00;1.10;;;;;;;16.49;100.00;100406.88;6041243;28;20025;-65
2022/09/09 13:16:30;;;;;;;5.38;1.55;;;;;;;17.01;100.00;100400.31;6047922;28;20048;-66
2022/09/09 13:19:28;;;;;;;3.17;1.10;;;;;;;16.98;100.00;100395.34;6042579;28;20441;-66
2022/09/09 13:22:37;;;;;;;3.40;1.33;;;;;;;16.95;100.00;100377.81;6034958;28;20038;-66
2022/09/09 13:25:34;;;;;;;4.18;1.20;;;;;;;17.11;100.00;100384.72;6063416;28;20477;-65
2022/09/09 13:28:30;;;;;;;4.60;1.20;;;;;;;17.41;100.00;100386.16;6046958;28;20034;-65
2022/09/09 13:31:32;;;;;;;3.08;0.95;;;;;;;17.71;100.00;100371.47;6044604;28;20054;-65
2022/09/09 13:34:30;;;;;;;4.68;1.20;;;;;;;17.81;99.40;100365.72;6041806;28;20042;-64
2022/09/09 13:37:34;;;;;;;2.95;1.00;;;;;;;17.89;99.42;100367.38;6039777;28;20034;-64
2022/09/09 13:40:30;;;;;;;2.42;0.90;;;;;;;18.24;97.23;100360.84;6039958;28;20050;-64
2022/09/09 13:43:27;;;;;;;6.90;1.00;;;;;;;17.87;94.72;100381.00;6035924;28;20030;-65
2022/09/09 13:46:29;;;;;;;2.83;0.95;;;;;;;17.63;96.87;100406.50;6046234;28;20388;-66
2022/09/09 13:49:28;;;;;;;2.35;1.00;;;;;;;17.20;98.49;100399.63;6035400;28;20042;-66
2022/09/09 13:52:24;;;;;;;5.85;1.60;;;;;;;17.09;100.00;100392.13;6047192;28;20049;-68
2022/09/09 13:55:23;;;;;;;8.27;1.80;;;;;;;16.71;100.00;100393.50;6036982;28;20438;-68